createdAt,value
2018-08-12T00:00:42.245Z,2.10
2018-08-12T00:03:11.430Z,2.13
2018-08-12T00:05:40.731Z,2.10
2018-08-12T00:08:10.031Z,2.10
2018-08-12T00:10:39.274Z,2.07
2018-08-12T00:13:08.374Z,2.10
2018-08-12T00:15:37.456Z,2.30
2018-08-12T00:18:06.680Z,2.10
2018-08-12T00:20:36.768Z,2.20
2018-08-12T00:23:05.859Z,2.47
2018-08-12T00:25:34.966Z,2.50
2018-08-12T00:28:04.042Z,2.30
2018-08-12T00:30:33.149Z,2.20
2018-08-12T00:33:02.222Z,2.40
2018-08-12T00:35:31.337Z,2.27
2018-08-12T00:38:00.456Z,2.00
2018-08-12T00:40:29.516Z,2.27
2018-08-12T00:42:58.627Z,2.20
2018-08-12T00:45:27.706Z,2.17
2018-08-12T00:47:56.817Z,1.73
2018-08-12T00:50:25.910Z,2.13
2018-08-12T00:52:55.076Z,2.20
2018-08-12T00:55:24.091Z,2.10
2018-08-12T00:57:53.181Z,1.93
2018-08-12T01:00:23.151Z,2.00
2018-08-12T01:02:52.275Z,2.20
2018-08-12T01:05:21.313Z,2.20
2018-08-12T01:07:50.979Z,2.30
2018-08-12T01:10:20.574Z,2.40
2018-08-12T01:12:49.713Z,2.10
2018-08-12T01:15:20.841Z,2.20
2018-08-12T01:17:50.049Z,2.47
2018-08-12T01:20:21.951Z,2.30
2018-08-12T01:22:51.063Z,2.40
2018-08-12T01:25:20.403Z,2.00
2018-08-12T01:27:49.554Z,2.40
2018-08-12T01:30:20.841Z,2.30
2018-08-12T01:32:50.048Z,2.20
2018-08-12T01:35:19.427Z,2.30
2018-08-12T01:37:49.217Z,2.20
2018-08-12T01:40:19.083Z,2.37
2018-08-12T01:42:48.133Z,2.40
2018-08-12T01:45:18.799Z,2.10
2018-08-12T01:47:47.982Z,2.00
2018-08-12T01:50:18.482Z,2.20
2018-08-12T01:52:47.578Z,2.07
2018-08-12T01:55:16.873Z,2.10
2018-08-12T01:57:46.041Z,2.10
2018-08-12T02:00:18.471Z,2.10
2018-08-12T02:02:48.032Z,2.10
2018-08-12T02:05:17.685Z,2.30
2018-08-12T02:07:46.889Z,1.90
2018-08-12T02:10:15.999Z,2.33
2018-08-12T02:12:45.061Z,2.30
2018-08-12T02:15:14.085Z,2.00
2018-08-12T02:17:43.161Z,2.40
2018-08-12T02:20:12.871Z,2.70
2018-08-12T02:22:42.691Z,2.30
2018-08-12T02:25:12.325Z,2.30
2018-08-12T02:27:41.357Z,2.50
2018-08-12T02:30:11.969Z,2.50
2018-08-12T02:32:41.720Z,2.30
2018-08-12T02:35:11.132Z,2.60
2018-08-12T02:37:40.790Z,2.40
2018-08-12T02:40:10.555Z,2.67
2018-08-12T02:42:39.655Z,2.30
2018-08-12T02:45:11.056Z,2.40
2018-08-12T02:47:40.097Z,2.53
2018-08-12T02:50:09.191Z,2.33
2018-08-12T02:52:38.361Z,2.60
2018-08-12T02:55:08.581Z,2.77
2018-08-12T02:57:37.657Z,2.30
2018-08-12T03:00:08.010Z,2.33
2018-08-12T03:02:37.116Z,2.47
2018-08-12T03:05:06.251Z,2.30
2018-08-12T03:07:35.621Z,2.30
2018-08-12T03:10:05.770Z,2.37
2018-08-12T03:12:34.829Z,2.57
2018-08-12T03:15:04.512Z,2.30
2018-08-12T03:17:33.530Z,2.60
2018-08-12T03:20:02.633Z,2.60
2018-08-12T03:22:31.732Z,2.53
2018-08-12T03:25:00.722Z,2.40
2018-08-12T03:27:29.848Z,2.57
2018-08-12T03:30:00.055Z,2.60
2018-08-12T03:32:29.196Z,2.30
2018-08-12T03:34:58.290Z,2.57
2018-08-12T03:37:27.292Z,2.57
2018-08-12T03:39:56.349Z,2.33
2018-08-12T03:42:25.397Z,2.47
2018-08-12T03:44:54.402Z,2.70
2018-08-12T03:47:23.542Z,2.43
2018-08-12T03:49:52.572Z,2.60
2018-08-12T03:52:21.632Z,2.50
2018-08-12T03:54:50.685Z,2.60
2018-08-12T03:57:19.740Z,2.60
2018-08-12T03:59:48.853Z,2.53
2018-08-12T04:02:17.935Z,2.83
2018-08-12T04:04:47.002Z,2.23
2018-08-12T04:07:16.137Z,2.60
2018-08-12T04:09:45.174Z,2.50
2018-08-12T04:12:14.237Z,2.30
2018-08-12T04:14:43.385Z,2.47
2018-08-12T04:17:12.430Z,2.30
2018-08-12T04:19:41.454Z,2.30
2018-08-12T04:22:10.636Z,2.40
2018-08-12T04:24:39.760Z,2.20
2018-08-12T04:27:08.758Z,2.60
2018-08-12T04:29:37.827Z,2.43
2018-08-12T04:32:06.970Z,2.33
2018-08-12T04:34:36.038Z,2.30
2018-08-12T04:37:05.192Z,2.30
2018-08-12T04:39:34.368Z,2.33
2018-08-12T04:42:03.554Z,2.20
2018-08-12T04:44:32.633Z,2.30
2018-08-12T04:47:01.949Z,2.37
2018-08-12T04:49:31.040Z,2.37
2018-08-12T04:52:00.154Z,2.60
2018-08-12T04:54:29.286Z,2.40
2018-08-12T04:56:58.308Z,2.27
2018-08-12T04:59:27.437Z,2.40
2018-08-12T05:01:56.524Z,2.47
2018-08-12T05:04:25.589Z,2.30
2018-08-12T05:06:54.797Z,2.60
2018-08-12T05:09:23.892Z,2.60
2018-08-12T05:11:52.979Z,2.60
2018-08-12T05:14:22.202Z,2.90
2018-08-12T05:16:51.273Z,2.63
2018-08-12T05:19:20.373Z,2.97
2018-08-12T05:21:49.481Z,3.20
2018-08-12T05:24:18.717Z,3.00
2018-08-12T05:26:47.833Z,2.87
2018-08-12T05:29:16.980Z,2.73
2018-08-12T05:31:46.123Z,2.87
2018-08-12T05:34:15.229Z,2.70
2018-08-12T05:36:44.291Z,2.50
2018-08-12T05:39:14.354Z,2.23
2018-08-12T05:41:43.899Z,2.40
2018-08-12T05:44:13.005Z,2.30
2018-08-12T05:46:42.075Z,2.23
2018-08-12T05:49:11.154Z,2.57
2018-08-12T05:51:40.383Z,2.20
2018-08-12T05:54:09.391Z,2.10
2018-08-12T05:56:39.400Z,1.93
2018-08-12T05:59:08.471Z,1.90
2018-08-12T06:01:37.550Z,1.83
2018-08-12T06:04:06.575Z,2.03
2018-08-12T06:06:36.407Z,2.10
2018-08-12T06:09:08.118Z,2.10
2018-08-12T06:11:37.279Z,2.00
2018-08-12T06:14:07.008Z,2.00
2018-08-12T06:16:36.140Z,1.70
2018-08-12T06:19:05.263Z,1.60
2018-08-12T06:21:34.590Z,1.80
2018-08-12T06:24:03.762Z,1.90
2018-08-12T06:26:32.780Z,1.63
2018-08-12T06:29:01.893Z,1.80
2018-08-12T06:31:31.237Z,1.70
2018-08-12T06:34:00.320Z,1.80
2018-08-12T06:36:29.309Z,1.73
2018-08-12T06:38:58.469Z,1.93
2018-08-12T06:41:27.780Z,1.67
2018-08-12T06:43:56.917Z,1.70
2018-08-12T06:46:25.993Z,1.70
2018-08-12T06:48:54.992Z,1.70
2018-08-12T06:51:24.067Z,1.60
2018-08-12T06:53:53.154Z,1.80
2018-08-12T06:56:22.315Z,1.60
2018-08-12T06:58:51.438Z,1.57
2018-08-12T07:01:20.734Z,1.50
2018-08-12T07:03:49.697Z,1.53
2018-08-12T07:06:18.824Z,1.47
2018-08-12T07:08:47.932Z,1.50
2018-08-12T07:11:17.046Z,1.50
2018-08-12T07:13:46.160Z,1.40
2018-08-12T07:16:15.378Z,1.50
2018-08-12T07:18:44.465Z,1.40
2018-08-12T07:22:17.039Z,1.30
2018-08-12T07:24:46.188Z,1.40
2018-08-12T07:27:15.320Z,1.63
2018-08-12T07:29:44.442Z,1.50
2018-08-12T07:32:13.662Z,1.37
2018-08-12T07:34:42.656Z,1.10
2018-08-12T07:37:11.798Z,0.97
2018-08-12T07:39:40.952Z,1.00
2018-08-12T07:42:10.076Z,1.30
2018-08-12T07:44:39.182Z,1.10
2018-08-12T07:47:08.310Z,1.10
2018-08-12T07:49:37.408Z,0.87
2018-08-12T07:52:06.856Z,1.10
2018-08-12T07:54:35.972Z,1.17
2018-08-12T07:57:04.997Z,1.03
2018-08-12T07:59:34.100Z,1.17
2018-08-12T08:02:03.442Z,1.20
2018-08-12T08:04:32.582Z,1.00
2018-08-12T08:07:01.708Z,1.20
2018-08-12T08:09:30.932Z,1.10
2018-08-12T08:12:01.184Z,1.30
2018-08-12T08:14:30.230Z,1.30
2018-08-12T08:16:59.266Z,1.27
2018-08-12T08:19:28.461Z,1.23
2018-08-12T08:21:57.586Z,1.23
2018-08-12T08:24:26.584Z,1.40
2018-08-12T08:26:55.652Z,1.50
2018-08-12T08:29:24.785Z,1.50
2018-08-12T08:31:54.044Z,1.40
2018-08-12T08:34:22.938Z,1.30
2018-08-12T08:36:51.977Z,1.20
2018-08-12T08:39:21.017Z,1.43
2018-08-12T08:41:50.078Z,1.30
2018-08-12T08:44:19.256Z,1.40
2018-08-12T08:46:48.310Z,1.20
2018-08-12T08:49:17.404Z,1.30
2018-08-12T08:51:47.362Z,1.20
2018-08-12T08:54:16.394Z,1.30
2018-08-12T08:56:45.490Z,1.30
2018-08-12T08:59:14.485Z,1.20
2018-08-12T09:01:43.598Z,1.30
2018-08-12T09:04:12.767Z,1.10
2018-08-12T09:06:41.905Z,1.10
2018-08-12T09:09:14.101Z,1.43
2018-08-12T09:11:42.989Z,1.17
2018-08-12T09:14:12.351Z,1.30
2018-08-12T09:16:41.701Z,1.37
2018-08-12T09:19:10.755Z,1.20
2018-08-12T09:21:39.925Z,1.40
2018-08-12T09:24:09.167Z,1.17
2018-08-12T09:26:38.321Z,1.20
2018-08-12T09:29:07.284Z,1.20
2018-08-12T09:31:36.336Z,1.20
2018-08-12T09:34:05.429Z,1.10
2018-08-12T09:36:34.427Z,1.43
2018-08-12T09:39:04.317Z,1.40
2018-08-12T09:41:33.292Z,1.30
2018-08-12T09:44:02.449Z,1.30
2018-08-12T09:46:31.509Z,1.30
2018-08-12T09:49:00.634Z,1.40
2018-08-12T09:51:29.974Z,1.20
2018-08-12T09:53:59.232Z,1.23
2018-08-12T09:56:28.397Z,1.30
2018-08-12T09:58:57.420Z,1.23
2018-08-12T10:01:26.464Z,1.30
2018-08-12T10:03:55.672Z,1.50
2018-08-12T10:06:24.784Z,1.40
2018-08-12T10:08:53.936Z,1.47
2018-08-12T10:11:22.898Z,2.53
2018-08-12T10:13:52.201Z,1.50
2018-08-12T10:16:21.213Z,1.60
2018-08-12T10:18:50.274Z,1.30
2018-08-12T10:21:19.356Z,1.30
2018-08-12T10:23:48.500Z,1.70
2018-08-12T10:26:17.544Z,1.60
2018-08-12T10:28:46.684Z,1.40
2018-08-12T10:31:15.775Z,1.30
2018-08-12T10:33:44.840Z,1.17
2018-08-12T10:36:13.989Z,1.20
2018-08-12T10:38:44.188Z,1.40
2018-08-12T10:41:13.239Z,1.50
2018-08-12T10:43:42.340Z,1.53
2018-08-12T10:46:11.509Z,1.30
2018-08-12T10:48:40.513Z,1.40
2018-08-12T10:51:10.157Z,1.30
2018-08-12T10:53:39.436Z,1.40
2018-08-12T10:56:08.675Z,2.40
2018-08-12T10:58:37.812Z,2.73
2018-08-12T11:01:07.042Z,1.57
2018-08-12T11:03:36.308Z,1.30
2018-08-12T11:06:05.564Z,1.50
2018-08-12T11:08:34.696Z,1.47
2018-08-12T11:11:03.798Z,1.53
2018-08-12T11:13:32.842Z,1.80
2018-08-12T11:16:01.930Z,1.40
2018-08-12T11:18:31.014Z,1.40
2018-08-12T11:21:00.159Z,1.40
2018-08-12T11:23:29.302Z,1.70
2018-08-12T11:25:58.427Z,1.50
2018-08-12T11:28:27.448Z,1.90
2018-08-12T11:30:56.496Z,1.70
2018-08-12T11:33:25.675Z,1.80
2018-08-12T11:35:54.985Z,2.00
2018-08-12T11:38:24.146Z,1.90
2018-08-12T11:40:53.231Z,1.60
2018-08-12T11:43:22.294Z,1.70
2018-08-12T11:45:51.444Z,1.73
2018-08-12T11:48:20.666Z,1.50
2018-08-12T11:50:49.741Z,1.80
2018-08-12T11:53:18.761Z,1.43
2018-08-12T11:55:47.832Z,1.90
2018-08-12T11:58:16.975Z,1.73
2018-08-12T12:00:46.096Z,1.70
2018-08-12T12:03:15.238Z,1.70
2018-08-12T12:05:44.403Z,1.70
2018-08-12T12:08:13.476Z,1.90
2018-08-12T12:10:42.581Z,1.57
2018-08-12T12:13:11.637Z,1.77
2018-08-12T12:15:40.799Z,1.83
2018-08-12T12:18:09.845Z,1.80
2018-08-12T12:20:39.129Z,1.73
2018-08-12T12:23:08.302Z,1.80
2018-08-12T12:25:37.473Z,1.80
2018-08-12T12:28:06.607Z,1.87
2018-08-12T12:30:36.834Z,1.80
2018-08-12T12:33:06.205Z,1.70
2018-08-12T12:35:35.322Z,1.80
2018-08-12T12:38:04.401Z,1.50
2018-08-12T12:40:33.457Z,1.90
2018-08-12T12:43:02.602Z,1.50
2018-08-12T12:45:31.731Z,1.73
2018-08-12T12:48:00.981Z,1.57
2018-08-12T12:50:30.291Z,1.77
2018-08-12T12:52:59.337Z,1.63
2018-08-12T12:55:28.422Z,1.57
2018-08-12T12:57:57.597Z,1.90
2018-08-12T13:00:26.637Z,1.73
2018-08-12T13:02:55.797Z,1.73
2018-08-12T13:05:24.915Z,1.93
2018-08-12T13:07:54.011Z,1.90
2018-08-12T13:10:23.197Z,1.77
2018-08-12T13:12:52.337Z,1.70
2018-08-12T13:15:21.585Z,1.73
2018-08-12T13:17:50.775Z,1.77
2018-08-12T13:20:21.201Z,1.67
2018-08-12T13:22:50.585Z,1.90
2018-08-12T13:25:21.241Z,1.77
2018-08-12T13:27:50.275Z,1.60
2018-08-12T13:30:20.257Z,1.63
2018-08-12T13:32:49.991Z,1.43
2018-08-12T13:35:19.069Z,1.60
2018-08-12T13:37:48.111Z,1.60
2018-08-12T13:40:18.459Z,1.50
2018-08-12T13:42:47.797Z,1.67
2018-08-12T13:45:16.990Z,1.47
2018-08-12T13:47:46.866Z,1.50
2018-08-12T13:50:20.989Z,1.80
2018-08-12T13:52:50.549Z,1.60
2018-08-12T13:55:20.321Z,1.80
2018-08-12T13:57:50.143Z,1.40
2018-08-12T14:00:21.118Z,1.57
2018-08-12T14:02:50.237Z,1.60
2018-08-12T14:05:19.660Z,1.63
2018-08-12T14:07:49.261Z,1.70
2018-08-12T14:10:18.479Z,1.50
2018-08-12T14:12:47.631Z,1.60
2018-08-12T14:15:18.000Z,1.70
2018-08-12T14:17:48.019Z,1.80
2018-08-12T14:20:18.354Z,1.60
2018-08-12T14:22:47.462Z,2.40
2018-08-12T14:25:17.679Z,2.30
2018-08-12T14:27:46.658Z,2.37
2018-08-12T14:30:17.608Z,1.83
2018-08-12T14:32:47.382Z,1.70
2018-08-12T14:35:17.328Z,1.70
2018-08-12T14:37:46.738Z,1.60
2018-08-12T14:40:16.127Z,1.60
2018-08-12T14:42:45.290Z,1.67
2018-08-12T14:45:15.202Z,1.70
2018-08-12T14:47:44.732Z,1.73
2018-08-12T14:50:16.196Z,1.63
2018-08-12T14:52:45.380Z,1.60
2018-08-12T14:55:15.222Z,1.60
2018-08-12T14:57:44.312Z,2.20
2018-08-12T15:00:16.046Z,1.60
2018-08-12T15:02:46.254Z,1.60
2018-08-12T15:05:15.358Z,1.67
2018-08-12T15:07:44.574Z,1.70
2018-08-12T15:10:14.122Z,1.70
2018-08-12T15:12:43.983Z,1.60
2018-08-12T15:15:14.290Z,1.50
2018-08-12T15:17:44.495Z,1.50
2018-08-12T15:20:14.431Z,1.70
2018-08-12T15:22:43.466Z,1.60
2018-08-12T15:25:17.750Z,1.60
2018-08-12T15:27:47.181Z,1.70
2018-08-12T15:30:16.673Z,1.50
2018-08-12T15:32:45.863Z,1.50
2018-08-12T15:35:15.048Z,1.60
2018-08-12T15:37:44.261Z,1.70
2018-08-12T15:40:15.095Z,1.50
2018-08-12T15:42:44.819Z,1.67
2018-08-12T15:45:15.281Z,1.70
2018-08-12T15:47:45.045Z,1.90
2018-08-12T15:50:14.384Z,1.67
2018-08-12T15:52:44.884Z,2.17
2018-08-12T15:55:14.225Z,1.50
2018-08-12T15:57:43.322Z,1.60
2018-08-12T16:00:19.680Z,1.70
2018-08-12T16:02:48.924Z,1.80
2018-08-12T16:05:18.098Z,1.53
2018-08-12T16:07:48.153Z,1.73
2018-08-12T16:10:19.492Z,1.63
2018-08-12T16:12:49.719Z,2.00
2018-08-12T16:15:18.917Z,1.93
2018-08-12T16:17:48.056Z,1.90
2018-08-12T16:20:17.286Z,1.77
2018-08-12T16:22:46.530Z,1.73
2018-08-12T16:25:17.263Z,1.90
2018-08-12T16:27:46.392Z,1.53
2018-08-12T16:30:16.504Z,1.77
2018-08-12T16:32:45.680Z,1.50
2018-08-12T16:35:16.115Z,1.60
2018-08-12T16:37:45.935Z,1.40
2018-08-12T16:40:17.859Z,1.60
2018-08-12T16:42:47.228Z,1.60
2018-08-12T16:45:16.888Z,1.60
2018-08-12T16:47:46.431Z,1.60
2018-08-12T16:50:15.553Z,1.70
2018-08-12T16:52:44.992Z,1.63
2018-08-12T16:55:15.636Z,1.80
2018-08-12T16:57:45.546Z,1.80
2018-08-12T17:00:19.564Z,1.90
2018-08-12T17:02:48.852Z,1.53
2018-08-12T17:05:19.297Z,1.80
2018-08-12T17:11:21.076Z,1.70
2018-08-12T17:13:50.210Z,1.90
2018-08-12T17:16:19.292Z,1.63
2018-08-12T17:18:48.454Z,1.70
2018-08-12T17:21:17.572Z,1.80
2018-08-12T17:23:46.565Z,1.70
2018-08-12T17:26:15.700Z,1.63
2018-08-12T17:28:44.759Z,1.60
2018-08-12T17:31:13.790Z,1.80
2018-08-12T17:33:42.838Z,1.80
2018-08-12T17:36:12.027Z,1.80
2018-08-12T17:38:41.203Z,1.83
2018-08-12T17:41:10.294Z,1.80
2018-08-12T17:43:39.336Z,1.97
2018-08-12T17:46:08.473Z,1.53
2018-08-12T17:48:37.474Z,2.00
2018-08-12T17:51:06.644Z,1.60
2018-08-12T17:53:35.752Z,1.63
2018-08-12T17:56:04.894Z,1.77
2018-08-12T17:58:34.198Z,1.67
2018-08-12T18:01:03.266Z,1.73
2018-08-12T18:03:32.262Z,1.77
2018-08-12T18:06:01.271Z,2.10
2018-08-12T18:08:30.698Z,1.70
2018-08-12T18:10:59.829Z,1.70
2018-08-12T18:13:28.866Z,1.60
2018-08-12T18:15:57.828Z,1.70
2018-08-12T18:18:27.884Z,1.90
2018-08-12T18:20:57.806Z,2.00
2018-08-12T18:23:26.885Z,1.80
2018-08-12T18:25:56.090Z,2.00
2018-08-12T18:28:25.246Z,1.80
2018-08-12T18:30:54.266Z,1.93
2018-08-12T18:33:23.476Z,1.83
2018-08-12T18:35:52.674Z,1.77
2018-08-12T18:38:21.774Z,1.83
2018-08-12T18:40:50.857Z,1.77
2018-08-12T18:43:19.997Z,1.80
2018-08-12T18:45:49.059Z,2.00
2018-08-12T18:48:18.203Z,1.90
2018-08-12T18:50:47.247Z,1.70
2018-08-12T18:53:16.401Z,1.80
2018-08-12T18:55:45.424Z,1.83
2018-08-12T18:58:14.673Z,1.80
2018-08-12T19:00:43.749Z,1.70
2018-08-12T19:03:12.882Z,1.90
2018-08-12T19:05:42.029Z,1.70
2018-08-12T19:08:11.149Z,1.60
2018-08-12T19:10:40.279Z,1.83
2018-08-12T19:13:09.368Z,2.00
2018-08-12T19:15:38.389Z,1.60
2018-08-12T19:18:07.448Z,1.80
2018-08-12T19:20:36.568Z,2.00
2018-08-12T19:23:05.750Z,2.00
2018-08-12T19:25:34.734Z,2.00
2018-08-12T19:28:03.788Z,1.90
2018-08-12T19:30:32.980Z,2.00
2018-08-12T19:33:02.179Z,1.80
2018-08-12T19:35:31.309Z,1.80
2018-08-12T19:38:00.405Z,1.70
2018-08-12T19:40:29.521Z,1.80
2018-08-12T19:42:58.629Z,1.77
2018-08-12T19:45:27.641Z,1.83
2018-08-12T19:47:56.657Z,2.20
2018-08-12T19:50:25.770Z,1.83
2018-08-12T19:52:54.868Z,1.93
2018-08-12T19:55:23.921Z,1.93
2018-08-12T19:57:52.953Z,1.87
2018-08-12T20:00:22.059Z,1.80
2018-08-12T20:02:51.085Z,1.80
2018-08-12T20:05:20.101Z,1.90
2018-08-12T20:07:49.143Z,1.80
2018-08-12T20:10:18.248Z,1.83
2018-08-12T20:12:47.344Z,2.10
2018-08-12T20:15:16.436Z,2.10
2018-08-12T20:17:45.552Z,2.00
2018-08-12T20:20:14.694Z,2.03
2018-08-12T20:22:44.023Z,1.90
2018-08-12T20:25:13.147Z,1.97
2018-08-12T20:27:42.190Z,1.60
2018-08-12T20:30:12.368Z,1.90
2018-08-12T20:32:41.913Z,1.70
2018-08-12T20:35:11.090Z,2.03
2018-08-12T20:37:40.088Z,2.00
2018-08-12T20:40:09.268Z,1.50
2018-08-12T20:42:38.356Z,1.87
2018-08-12T20:45:07.784Z,1.80
2018-08-12T20:47:36.816Z,1.70
2018-08-12T20:50:06.508Z,1.90
2018-08-12T20:52:35.716Z,2.10
2018-08-12T20:55:05.232Z,2.00
2018-08-12T20:57:34.301Z,2.10
2018-08-12T21:00:03.477Z,1.90
2018-08-12T21:02:32.465Z,1.90
2018-08-12T21:05:01.552Z,1.87
2018-08-12T21:07:30.591Z,2.00
2018-08-12T21:09:59.682Z,2.00
2018-08-12T21:12:28.768Z,2.00
2018-08-12T21:14:57.846Z,1.80
2018-08-12T21:17:26.968Z,1.80
2018-08-12T21:19:56.084Z,1.90
2018-08-12T21:22:25.160Z,2.30
2018-08-12T21:24:54.277Z,1.93
2018-08-12T21:27:23.390Z,2.10
2018-08-12T21:29:52.440Z,1.70
2018-08-12T21:32:21.406Z,2.10
2018-08-12T21:34:50.438Z,1.90
2018-08-12T21:37:19.836Z,2.00
2018-08-12T21:39:49.014Z,1.90
2018-08-12T21:42:18.088Z,1.83
2018-08-12T21:44:47.105Z,2.07
2018-08-12T21:47:16.205Z,1.77
2018-08-12T21:49:45.353Z,1.67
2018-08-12T21:52:14.489Z,1.90
2018-08-12T21:54:44.211Z,2.00
2018-08-12T21:57:13.345Z,1.90
2018-08-12T21:59:42.576Z,1.90
2018-08-12T22:02:11.645Z,1.80
2018-08-12T22:04:40.698Z,1.80
2018-08-12T22:07:09.802Z,1.90
2018-08-12T22:09:38.936Z,1.93
2018-08-12T22:12:08.150Z,1.87
2018-08-12T22:14:37.182Z,1.93
2018-08-12T22:17:06.318Z,1.83
2018-08-12T22:19:35.436Z,1.93
2018-08-12T22:22:04.788Z,1.90
2018-08-12T22:24:33.820Z,1.60
2018-08-12T22:27:02.851Z,2.00
2018-08-12T22:29:31.968Z,2.13
2018-08-12T22:32:01.109Z,1.80
2018-08-12T22:34:31.207Z,1.90
2018-08-12T22:37:00.385Z,1.90
2018-08-12T22:39:29.496Z,1.90
2018-08-12T22:41:58.601Z,1.90
2018-08-12T22:44:27.693Z,1.70
2018-08-12T22:46:56.563Z,2.10
2018-08-12T22:49:25.616Z,1.80
2018-08-12T22:51:54.705Z,1.80
2018-08-12T22:54:23.743Z,1.97
2018-08-12T22:56:52.961Z,2.00
2018-08-12T22:59:22.113Z,1.83
2018-08-12T23:01:51.185Z,1.90
2018-08-12T23:04:20.223Z,1.70
2018-08-12T23:06:49.377Z,1.97
2018-08-12T23:09:18.496Z,1.90
2018-08-12T23:11:47.508Z,1.90
2018-08-12T23:14:16.583Z,2.00
2018-08-12T23:16:59.528Z,1.90
2018-08-12T23:19:29.023Z,1.90
2018-08-12T23:21:58.594Z,1.90
2018-08-12T23:24:27.665Z,1.73
2018-08-12T23:26:56.763Z,1.80
2018-08-12T23:29:25.934Z,1.70
2018-08-12T23:31:55.095Z,1.90
2018-08-12T23:34:24.131Z,1.80
2018-08-12T23:36:53.327Z,1.80
2018-08-12T23:39:22.481Z,1.77
2018-08-12T23:41:51.657Z,1.90
2018-08-12T23:44:20.752Z,1.83
2018-08-12T23:46:49.882Z,1.90
2018-08-12T23:49:18.941Z,2.10
2018-08-12T23:51:48.037Z,2.00
2018-08-12T23:54:17.103Z,2.10
2018-08-12T23:56:46.260Z,1.90
2018-08-12T23:59:15.335Z,1.93
